sensor_id;sensor_type;location;lat;lon;timestamp;pressure;altitude;pressure_sealevel;temperature;humidity
70027;BME280;57506;50.092;15.804;2023-08-06T00:00:06;97909.75;;;15.21;100.00
70027;BME280;57506;50.092;15.804;2023-08-06T00:02:33;97897.00;;;15.21;100.00
70027;BME280;57506;50.092;15.804;2023-08-06T00:04:59;97894.53;;;15.20;100.00
70027;BME280;57506;50.092;15.804;2023-08-06T00:07:24;97905.38;;;15.20;100.00
70027;BME280;57506;50.092;15.804;2023-08-06T00:09:50;97898.88;;;15.21;100.00
70027;BME280;57506;50.092;15.804;2023-08-06T00:12:15;97895.59;;;15.19;100.00
70027;BME280;57506;50.092;15.804;2023-08-06T00:14:41;97893.97;;;15.18;100.00
70027;BME280;57506;50.092;15.804;2023-08-06T00:17:07;97892.81;;;15.14;100.00
70027;BME280;57506;50.092;15.804;2023-08-06T00:19:33;97889.53;;;15.12;100.00
70027;BME280;57506;50.092;15.804;2023-08-06T00:21:58;97887.91;;;15.11;100.00
70027;BME280;57506;50.092;15.804;2023-08-06T00:24:24;97880.59;;;15.11;100.00
70027;BME280;57506;50.092;15.804;2023-08-06T00:26:49;97886.91;;;15.17;100.00
70027;BME280;57506;50.092;15.804;2023-08-06T00:29:15;97881.72;;;15.15;100.00
70027;BME280;57506;50.092;15.804;2023-08-06T00:31:41;97875.94;;;15.07;100.00
70027;BME280;57506;50.092;15.804;2023-08-06T00:34:06;97869.38;;;15.02;100.00
70027;BME280;57506;50.092;15.804;2023-08-06T00:36:32;97877.00;;;15.05;100.00
70027;BME280;57506;50.092;15.804;2023-08-06T00:38:59;97855.56;;;15.04;100.00
70027;BME280;57506;50.092;15.804;2023-08-06T00:41:25;97862.31;;;15.01;100.00
70027;BME280;57506;50.092;15.804;2023-08-06T00:43:51;97864.28;;;15.06;100.00
70027;BME280;57506;50.092;15.804;2023-08-06T00:46:17;97864.47;;;14.99;100.00
70027;BME280;57506;50.092;15.804;2023-08-06T00:48:43;97859.03;;;14.99;100.00
70027;BME280;57506;50.092;15.804;2023-08-06T00:51:10;97866.09;;;15.00;100.00
70027;BME280;57506;50.092;15.804;2023-08-06T00:53:37;97870.78;;;15.05;100.00
70027;BME280;57506;50.092;15.804;2023-08-06T00:56:03;97872.16;;;15.08;100.00
70027;BME280;57506;50.092;15.804;2023-08-06T00:58:29;97867.81;;;15.07;100.00
70027;BME280;57506;50.092;15.804;2023-08-06T01:00:55;97869.19;;;15.09;100.00
70027;BME280;57506;50.092;15.804;2023-08-06T01:03:20;97875.16;;;15.11;100.00
70027;BME280;57506;50.092;15.804;2023-08-06T01:05:46;97878.94;;;15.10;100.00
70027;BME280;57506;50.092;15.804;2023-08-06T01:08:33;97882.47;;;15.11;100.00
70027;BME280;57506;50.092;15.804;2023-08-06T01:13:42;97880.88;;;15.10;100.00
70027;BME280;57506;50.092;15.804;2023-08-06T01:16:09;97863.94;;;15.02;100.00
70027;BME280;57506;50.092;15.804;2023-08-06T01:18:35;97859.91;;;15.05;100.00
70027;BME280;57506;50.092;15.804;2023-08-06T01:21:02;97864.00;;;15.08;100.00
70027;BME280;57506;50.092;15.804;2023-08-06T01:23:28;97865.34;;;15.05;100.00
70027;BME280;57506;50.092;15.804;2023-08-06T01:26:09;97853.09;;;15.02;100.00
70027;BME280;57506;50.092;15.804;2023-08-06T01:31:36;97849.91;;;15.11;100.00
70027;BME280;57506;50.092;15.804;2023-08-06T01:34:05;97851.28;;;15.08;100.00
70027;BME280;57506;50.092;15.804;2023-08-06T01:36:31;97826.28;;;15.06;100.00
70027;BME280;57506;50.092;15.804;2023-08-06T01:38:57;97840.03;;;14.99;100.00
70027;BME280;57506;50.092;15.804;2023-08-06T01:41:23;97832.47;;;15.01;100.00
70027;BME280;57506;50.092;15.804;2023-08-06T01:43:49;97818.91;;;15.01;100.00
70027;BME280;57506;50.092;15.804;2023-08-06T01:46:14;97826.47;;;14.99;100.00
70027;BME280;57506;50.092;15.804;2023-08-06T01:48:40;97801.25;;;14.99;100.00
70027;BME280;57506;50.092;15.804;2023-08-06T01:51:05;97812.41;;;15.02;100.00
70027;BME280;57506;50.092;15.804;2023-08-06T01:53:32;97798.53;;;14.99;100.00
70027;BME280;57506;50.092;15.804;2023-08-06T01:55:57;97814.50;;;14.95;100.00
70027;BME280;57506;50.092;15.804;2023-08-06T01:58:23;97819.66;;;14.97;100.00
70027;BME280;57506;50.092;15.804;2023-08-06T02:00:49;97818.81;;;14.91;100.00
70027;BME280;57506;50.092;15.804;2023-08-06T02:03:14;97830.75;;;14.95;100.00
70027;BME280;57506;50.092;15.804;2023-08-06T02:05:40;97830.25;;;14.98;100.00
70027;BME280;57506;50.092;15.804;2023-08-06T02:08:06;97809.88;;;14.96;100.00
70027;BME280;57506;50.092;15.804;2023-08-06T02:10:31;97808.63;;;15.03;100.00
70027;BME280;57506;50.092;15.804;2023-08-06T02:12:57;97805.59;;;15.00;100.00
70027;BME280;57506;50.092;15.804;2023-08-06T02:15:22;97797.97;;;14.97;100.00
70027;BME280;57506;50.092;15.804;2023-08-06T02:17:48;97772.72;;;14.96;100.00
70027;BME280;57506;50.092;15.804;2023-08-06T02:20:14;97759.13;;;14.91;100.00
70027;BME280;57506;50.092;15.804;2023-08-06T02:22:39;97755.84;;;14.89;100.00
70027;BME280;57506;50.092;15.804;2023-08-06T02:25:05;97756.97;;;14.93;100.00
70027;BME280;57506;50.092;15.804;2023-08-06T02:27:30;97760.22;;;14.90;100.00
70027;BME280;57506;50.092;15.804;2023-08-06T02:29:56;97746.59;;;14.85;100.00
70027;BME280;57506;50.092;15.804;2023-08-06T02:32:21;97747.97;;;14.88;100.00
70027;BME280;57506;50.092;15.804;2023-08-06T02:34:47;97746.31;;;14.87;100.00
70027;BME280;57506;50.092;15.804;2023-08-06T02:37:12;97753.66;;;14.86;100.00
70027;BME280;57506;50.092;15.804;2023-08-06T02:39:38;97745.19;;;14.83;100.00
70027;BME280;57506;50.092;15.804;2023-08-06T02:42:08;97730.56;;;14.84;100.00
70027;BME280;57506;50.092;15.804;2023-08-06T02:44:34;97747.97;;;14.88;100.00
70027;BME280;57506;50.092;15.804;2023-08-06T02:47:00;97753.09;;;14.84;100.00
70027;BME280;57506;50.092;15.804;2023-08-06T02:49:26;97747.06;;;14.77;100.00
70027;BME280;57506;50.092;15.804;2023-08-06T02:51:51;97747.91;;;14.83;100.00
70027;BME280;57506;50.092;15.804;2023-08-06T02:54:18;97730.25;;;14.80;100.00
70027;BME280;57506;50.092;15.804;2023-08-06T02:56:44;97737.06;;;14.83;100.00
70027;BME280;57506;50.092;15.804;2023-08-06T02:59:11;97748.66;;;14.78;100.00
70027;BME280;57506;50.092;15.804;2023-08-06T03:01:36;97732.13;;;14.75;100.00
70027;BME280;57506;50.092;15.804;2023-08-06T03:04:02;97731.88;;;14.76;100.00
70027;BME280;57506;50.092;15.804;2023-08-06T03:06:28;97724.53;;;14.77;100.00
70027;BME280;57506;50.092;15.804;2023-08-06T03:08:53;97722.66;;;14.77;100.00
70027;BME280;57506;50.092;15.804;2023-08-06T03:11:19;97721.53;;;14.73;100.00
70027;BME280;57506;50.092;15.804;2023-08-06T03:13:44;97714.53;;;14.77;100.00
70027;BME280;57506;50.092;15.804;2023-08-06T03:16:10;97713.63;;;14.72;100.00
70027;BME280;57506;50.092;15.804;2023-08-06T03:18:35;97712.88;;;14.76;100.00
70027;BME280;57506;50.092;15.804;2023-08-06T03:21:01;97706.31;;;14.72;100.00
70027;BME280;57506;50.092;15.804;2023-08-06T03:23:27;97696.81;;;14.69;100.00
70027;BME280;57506;50.092;15.804;2023-08-06T03:25:52;97702.22;;;14.69;100.00
70027;BME280;57506;50.092;15.804;2023-08-06T03:28:18;97698.94;;;14.67;100.00
70027;BME280;57506;50.092;15.804;2023-08-06T03:30:43;97684.50;;;14.62;100.00
70027;BME280;57506;50.092;15.804;2023-08-06T03:33:09;97679.63;;;14.59;100.00
70027;BME280;57506;50.092;15.804;2023-08-06T03:35:34;97687.84;;;14.69;100.00
70027;BME280;57506;50.092;15.804;2023-08-06T03:38:00;97671.53;;;14.64;100.00
70027;BME280;57506;50.092;15.804;2023-08-06T03:40:25;97656.59;;;14.61;100.00
70027;BME280;57506;50.092;15.804;2023-08-06T03:42:51;97662.81;;;14.62;100.00
70027;BME280;57506;50.092;15.804;2023-08-06T03:45:17;97655.78;;;14.61;100.00
70027;BME280;57506;50.092;15.804;2023-08-06T03:47:42;97661.50;;;14.64;100.00
70027;BME280;57506;50.092;15.804;2023-08-06T03:50:08;97666.06;;;14.59;100.00
70027;BME280;57506;50.092;15.804;2023-08-06T03:52:34;97661.22;;;14.61;100.00
70027;BME280;57506;50.092;15.804;2023-08-06T03:54:59;97665.00;;;14.60;100.00
70027;BME280;57506;50.092;15.804;2023-08-06T03:57:25;97665.25;;;14.58;100.00
70027;BME280;57506;50.092;15.804;2023-08-06T03:59:50;97659.22;;;14.51;100.00
70027;BME280;57506;50.092;15.804;2023-08-06T04:02:16;97675.03;;;14.59;100.00
70027;BME280;57506;50.092;15.804;2023-08-06T04:04:41;97668.16;;;14.52;100.00
70027;BME280;57506;50.092;15.804;2023-08-06T04:07:07;97668.22;;;14.57;100.00
70027;BME280;57506;50.092;15.804;2023-08-06T04:09:32;97672.50;;;14.53;100.00
70027;BME280;57506;50.092;15.804;2023-08-06T04:11:58;97672.81;;;14.56;100.00
70027;BME280;57506;50.092;15.804;2023-08-06T04:14:25;97667.09;;;14.53;100.00
70027;BME280;57506;50.092;15.804;2023-08-06T04:16:51;97664.06;;;14.49;100.00
70027;BME280;57506;50.092;15.804;2023-08-06T04:19:16;97667.59;;;14.50;100.00
70027;BME280;57506;50.092;15.804;2023-08-06T04:21:42;97662.50;;;14.53;100.00
70027;BME280;57506;50.092;15.804;2023-08-06T04:24:07;97662.53;;;14.58;100.00
70027;BME280;57506;50.092;15.804;2023-08-06T04:26:33;97662.19;;;14.50;100.00
70027;BME280;57506;50.092;15.804;2023-08-06T04:28:58;97668.91;;;14.47;100.00
70027;BME280;57506;50.092;15.804;2023-08-06T04:31:24;97674.72;;;14.56;100.00
70027;BME280;57506;50.092;15.804;2023-08-06T04:33:50;97676.28;;;14.52;100.00
70027;BME280;57506;50.092;15.804;2023-08-06T04:36:15;97680.59;;;14.48;100.00
70027;BME280;57506;50.092;15.804;2023-08-06T04:38:41;97687.13;;;14.52;100.00
70027;BME280;57506;50.092;15.804;2023-08-06T04:41:10;97680.84;;;14.46;100.00
70027;BME280;57506;50.092;15.804;2023-08-06T04:43:36;97699.38;;;14.54;100.00
70027;BME280;57506;50.092;15.804;2023-08-06T04:46:02;97692.31;;;14.53;100.00
70027;BME280;57506;50.092;15.804;2023-08-06T04:48:28;97688.84;;;14.58;100.00
70027;BME280;57506;50.092;15.804;2023-08-06T04:50:53;97687.44;;;14.55;100.00
70027;BME280;57506;50.092;15.804;2023-08-06T04:53:19;97675.22;;;14.53;100.00
70027;BME280;57506;50.092;15.804;2023-08-06T04:55:45;97689.66;;;14.58;100.00
70027;BME280;57506;50.092;15.804;2023-08-06T04:58:12;97683.34;;;14.53;100.00
70027;BME280;57506;50.092;15.804;2023-08-06T05:00:37;97694.00;;;14.59;100.00
70027;BME280;57506;50.092;15.804;2023-08-06T05:03:03;97697.72;;;14.53;100.00
70027;BME280;57506;50.092;15.804;2023-08-06T05:05:29;97690.16;;;14.55;100.00
70027;BME280;57506;50.092;15.804;2023-08-06T05:07:56;97691.81;;;14.56;100.00
70027;BME280;57506;50.092;15.804;2023-08-06T05:10:24;97701.31;;;14.59;100.00
70027;BME280;57506;50.092;15.804;2023-08-06T05:12:50;97700.75;;;14.57;100.00
70027;BME280;57506;50.092;15.804;2023-08-06T05:15:18;97690.97;;;14.56;100.00
70027;BME280;57506;50.092;15.804;2023-08-06T05:17:47;97702.97;;;14.60;100.00
70027;BME280;57506;50.092;15.804;2023-08-06T05:20:12;97700.78;;;14.62;100.00
70027;BME280;57506;50.092;15.804;2023-08-06T05:22:38;97695.34;;;14.62;100.00
70027;BME280;57506;50.092;15.804;2023-08-06T05:25:04;97689.34;;;14.55;100.00
70027;BME280;57506;50.092;15.804;2023-08-06T05:27:30;97697.47;;;14.55;100.00
70027;BME280;57506;50.092;15.804;2023-08-06T05:29:56;97692.88;;;14.55;100.00
70027;BME280;57506;50.092;15.804;2023-08-06T05:32:22;97687.19;;;14.57;100.00
70027;BME280;57506;50.092;15.804;2023-08-06T05:34:47;97697.78;;;14.58;100.00
70027;BME280;57506;50.092;15.804;2023-08-06T05:37:13;97696.72;;;14.59;100.00
70027;BME280;57506;50.092;15.804;2023-08-06T05:39:38;97698.59;;;14.59;100.00
70027;BME280;57506;50.092;15.804;2023-08-06T05:42:05;97707.56;;;14.59;100.00
70027;BME280;57506;50.092;15.804;2023-08-06T05:44:30;97703.78;;;14.60;100.00
70027;BME280;57506;50.092;15.804;2023-08-06T05:46:56;97700.75;;;14.57;100.00
70027;BME280;57506;50.092;15.804;2023-08-06T05:49:21;97699.38;;;14.54;100.00
70027;BME280;57506;50.092;15.804;2023-08-06T05:51:47;97697.00;;;14.63;100.00
70027;BME280;57506;50.092;15.804;2023-08-06T05:54:13;97693.75;;;14.61;100.00
70027;BME280;57506;50.092;15.804;2023-08-06T05:56:39;97693.75;;;14.61;100.00
70027;BME280;57506;50.092;15.804;2023-08-06T05:59:04;97699.78;;;14.68;100.00
70027;BME280;57506;50.092;15.804;2023-08-06T06:01:30;97692.97;;;14.65;100.00
70027;BME280;57506;50.092;15.804;2023-08-06T06:03:55;97689.75;;;14.68;100.00
70027;BME280;57506;50.092;15.804;2023-08-06T06:06:21;97693.75;;;14.61;100.00
70027;BME280;57506;50.092;15.804;2023-08-06T06:08:46;97682.09;;;14.60;100.00
70027;BME280;57506;50.092;15.804;2023-08-06T06:11:12;97693.22;;;14.64;100.00
70027;BME280;57506;50.092;15.804;2023-08-06T06:13:37;97687.03;;;14.68;100.00
70027;BME280;57506;50.092;15.804;2023-08-06T06:16:03;97691.88;;;14.66;100.00
70027;BME280;57506;50.092;15.804;2023-08-06T06:18:28;97695.66;;;14.65;100.00
70027;BME280;57506;50.092;15.804;2023-08-06T06:20:54;97684.56;;;14.67;100.00
70027;BME280;57506;50.092;15.804;2023-08-06T06:23:20;97688.66;;;14.69;100.00
70027;BME280;57506;50.092;15.804;2023-08-06T06:25:49;97679.78;;;14.74;100.00
70027;BME280;57506;50.092;15.804;2023-08-06T06:28:18;97682.44;;;14.69;100.00
70027;BME280;57506;50.092;15.804;2023-08-06T06:30:44;97687.66;;;14.76;100.00
70027;BME280;57506;50.092;15.804;2023-08-06T06:33:09;97686.53;;;14.72;100.00
70027;BME280;57506;50.092;15.804;2023-08-06T06:35:35;97680.84;;;14.73;100.00
70027;BME280;57506;50.092;15.804;2023-08-06T06:38:02;97687.34;;;14.72;100.00
70027;BME280;57506;50.092;15.804;2023-08-06T06:40:27;97678.69;;;14.75;100.00
70027;BME280;57506;50.092;15.804;2023-08-06T06:42:53;97668.66;;;14.76;100.00
70027;BME280;57506;50.092;15.804;2023-08-06T06:45:19;97680.41;;;14.86;100.00
70027;BME280;57506;50.092;15.804;2023-08-06T06:47:44;97675.50;;;14.83;100.00
70027;BME280;57506;50.092;15.804;2023-08-06T06:50:10;97682.06;;;14.87;100.00
70027;BME280;57506;50.092;15.804;2023-08-06T06:52:36;97680.41;;;14.86;100.00
70027;BME280;57506;50.092;15.804;2023-08-06T06:55:01;97691.25;;;14.86;100.00
70027;BME280;57506;50.092;15.804;2023-08-06T06:57:27;97688.56;;;14.86;100.00
70027;BME280;57506;50.092;15.804;2023-08-06T06:59:53;97693.41;;;14.84;100.00
70027;BME280;57506;50.092;15.804;2023-08-06T07:02:18;97688.88;;;14.90;100.00
70027;BME280;57506;50.092;15.804;2023-08-06T07:04:44;97689.44;;;14.92;100.00
70027;BME280;57506;50.092;15.804;2023-08-06T07:07:09;97682.63;;;14.94;100.00
70027;BME280;57506;50.092;15.804;2023-08-06T07:09:35;97681.31;;;14.97;100.00
70027;BME280;57506;50.092;15.804;2023-08-06T07:12:01;97694.63;;;14.98;100.00
70027;BME280;57506;50.092;15.804;2023-08-06T07:14:28;97685.72;;;15.03;100.00
70027;BME280;57506;50.092;15.804;2023-08-06T07:16:54;97679.78;;;15.06;100.00
70027;BME280;57506;50.092;15.804;2023-08-06T07:19:19;97682.75;;;15.04;100.00
70027;BME280;57506;50.092;15.804;2023-08-06T07:21:45;97680.88;;;15.10;100.00
70027;BME280;57506;50.092;15.804;2023-08-06T07:24:11;97669.00;;;15.16;100.00
70027;BME280;57506;50.092;15.804;2023-08-06T07:26:37;97669.75;;;15.12;100.00
70027;BME280;57506;50.092;15.804;2023-08-06T07:29:05;97664.94;;;15.19;100.00
70027;BME280;57506;50.092;15.804;2023-08-06T07:31:31;97665.19;;;15.17;100.00
70027;BME280;57506;50.092;15.804;2023-08-06T07:33:56;97673.06;;;15.19;100.00
70027;BME280;57506;50.092;15.804;2023-08-06T07:36:22;97651.44;;;15.29;100.00
70027;BME280;57506;50.092;15.804;2023-08-06T07:38:47;97670.97;;;15.31;100.00
70027;BME280;57506;50.092;15.804;2023-08-06T07:41:16;97658.84;;;15.38;100.00
70027;BME280;57506;50.092;15.804;2023-08-06T07:43:42;97660.16;;;15.36;100.00
70027;BME280;57506;50.092;15.804;2023-08-06T07:46:08;97663.47;;;15.43;100.00
70027;BME280;57506;50.092;15.804;2023-08-06T07:48:34;97658.56;;;15.40;100.00
70027;BME280;57506;50.092;15.804;2023-08-06T07:50:59;97653.66;;;15.37;100.00
70027;BME280;57506;50.092;15.804;2023-08-06T07:53:26;97664.00;;;15.45;100.00
70027;BME280;57506;50.092;15.804;2023-08-06T07:55:57;97647.22;;;15.48;100.00
70027;BME280;57506;50.092;15.804;2023-08-06T07:58:24;97655.09;;;15.50;100.00
70027;BME280;57506;50.092;15.804;2023-08-06T08:00:51;97653.47;;;15.49;100.00
70027;BME280;57506;50.092;15.804;2023-08-06T08:03:16;97651.03;;;15.52;100.00
70027;BME280;57506;50.092;15.804;2023-08-06T08:05:43;97660.06;;;15.63;100.00
70027;BME280;57506;50.092;15.804;2023-08-06T08:08:12;97665.25;;;15.64;100.00
70027;BME280;57506;50.092;15.804;2023-08-06T08:10:38;97655.81;;;15.72;100.00
70027;BME280;57506;50.092;15.804;2023-08-06T08:13:04;97661.75;;;15.69;100.00
70027;BME280;57506;50.092;15.804;2023-08-06T08:15:31;97660.41;;;15.71;100.00
70027;BME280;57506;50.092;15.804;2023-08-06T08:17:58;97650.94;;;15.79;100.00
70027;BME280;57506;50.092;15.804;2023-08-06T08:20:24;97663.72;;;15.84;100.00
70027;BME280;57506;50.092;15.804;2023-08-06T08:22:49;97648.75;;;15.81;100.00
70027;BME280;57506;50.092;15.804;2023-08-06T08:25:19;97679.47;;;15.82;100.00
70027;BME280;57506;50.092;15.804;2023-08-06T08:27:45;97662.63;;;15.85;100.00
70027;BME280;57506;50.092;15.804;2023-08-06T08:30:10;97685.44;;;15.84;100.00
70027;BME280;57506;50.092;15.804;2023-08-06T08:32:36;97682.22;;;15.87;100.00
70027;BME280;57506;50.092;15.804;2023-08-06T08:35:01;97665.09;;;15.91;100.00
70027;BME280;57506;50.092;15.804;2023-08-06T08:37:27;97676.28;;;16.00;100.00
70027;BME280;57506;50.092;15.804;2023-08-06T08:39:52;97684.97;;;15.97;100.00
70027;BME280;57506;50.092;15.804;2023-08-06T08:42:18;97676.25;;;15.95;100.00
70027;BME280;57506;50.092;15.804;2023-08-06T08:44:45;97671.38;;;15.97;100.00
70027;BME280;57506;50.092;15.804;2023-08-06T08:47:11;97680.09;;;15.99;100.00
70027;BME280;57506;50.092;15.804;2023-08-06T08:49:37;97684.94;;;15.92;100.00
70027;BME280;57506;50.092;15.804;2023-08-06T08:52:03;97683.91;;;16.03;100.00
70027;BME280;57506;50.092;15.804;2023-08-06T08:54:34;97701.28;;;15.97;100.00
70027;BME280;57506;50.092;15.804;2023-08-06T08:57:00;97684.19;;;16.01;100.00
70027;BME280;57506;50.092;15.804;2023-08-06T08:59:27;97679.91;;;16.21;100.00
70027;BME280;57506;50.092;15.804;2023-08-06T09:01:54;97694.56;;;16.15;100.00
70027;BME280;57506;50.092;15.804;2023-08-06T09:04:20;97703.22;;;16.12;100.00
70027;BME280;57506;50.092;15.804;2023-08-06T09:06:51;97693.19;;;16.12;100.00
70027;BME280;57506;50.092;15.804;2023-08-06T09:09:26;97674.78;;;16.34;100.00
70027;BME280;57506;50.092;15.804;2023-08-06T09:11:51;97675.88;;;16.33;100.00
70027;BME280;57506;50.092;15.804;2023-08-06T09:14:18;97674.78;;;16.44;100.00
70027;BME280;57506;50.092;15.804;2023-08-06T09:16:44;97678.03;;;16.41;100.00
70027;BME280;57506;50.092;15.804;2023-08-06T09:19:14;97682.94;;;16.34;100.00
70027;BME280;57506;50.092;15.804;2023-08-06T09:21:43;97689.16;;;16.30;100.00
70027;BME280;57506;50.092;15.804;2023-08-06T09:24:10;97691.84;;;16.25;100.00
70027;BME280;57506;50.092;15.804;2023-08-06T09:26:37;97676.09;;;16.22;100.00
70027;BME280;57506;50.092;15.804;2023-08-06T09:29:07;97683.72;;;16.30;100.00
70027;BME280;57506;50.092;15.804;2023-08-06T09:34:15;97676.31;;;16.10;100.00
70027;BME280;57506;50.092;15.804;2023-08-06T09:36:48;97665.25;;;16.22;100.00
70027;BME280;57506;50.092;15.804;2023-08-06T09:39:17;97649.75;;;16.27;100.00
70027;BME280;57506;50.092;15.804;2023-08-06T09:41:43;97673.06;;;16.13;100.00
70027;BME280;57506;50.092;15.804;2023-08-06T09:44:20;97668.94;;;16.00;100.00
70027;BME280;57506;50.092;15.804;2023-08-06T09:46:54;97654.06;;;16.18;100.00
70027;BME280;57506;50.092;15.804;2023-08-06T09:49:24;97629.09;;;16.21;100.00
70027;BME280;57506;50.092;15.804;2023-08-06T09:51:51;97660.03;;;16.15;100.00
70027;BME280;57506;50.092;15.804;2023-08-06T09:54:19;97634.47;;;16.06;100.00
70027;BME280;57506;50.092;15.804;2023-08-06T09:56:45;97649.69;;;16.12;100.00
70027;BME280;57506;50.092;15.804;2023-08-06T09:59:10;97644.81;;;16.14;100.00
70027;BME280;57506;50.092;15.804;2023-08-06T10:01:39;97641.59;;;16.22;100.00
70027;BME280;57506;50.092;15.804;2023-08-06T10:04:05;97653.53;;;16.21;100.00
70027;BME280;57506;50.092;15.804;2023-08-06T10:06:36;97650.56;;;16.23;100.00
70027;BME280;57506;50.092;15.804;2023-08-06T10:09:02;97646.72;;;16.24;100.00
70027;BME280;57506;50.092;15.804;2023-08-06T10:11:29;97638.34;;;16.30;100.00
70027;BME280;57506;50.092;15.804;2023-08-06T10:14:02;97637.00;;;16.38;100.00
70027;BME280;57506;50.092;15.804;2023-08-06T10:16:29;97647.03;;;16.27;100.00
70027;BME280;57506;50.092;15.804;2023-08-06T10:18:57;97651.66;;;16.32;100.00
70027;BME280;57506;50.092;15.804;2023-08-06T10:21:26;97648.09;;;16.26;100.00
70027;BME280;57506;50.092;15.804;2023-08-06T10:23:54;97651.94;;;16.40;100.00
70027;BME280;57506;50.092;15.804;2023-08-06T10:26:20;97636.75;;;16.55;100.00
70027;BME280;57506;50.092;15.804;2023-08-06T10:28:46;97660.66;;;16.58;100.00
70027;BME280;57506;50.092;15.804;2023-08-06T10:31:11;97654.16;;;16.59;100.00
70027;BME280;57506;50.092;15.804;2023-08-06T10:33:46;97639.25;;;16.82;100.00
70027;BME280;57506;50.092;15.804;2023-08-06T10:36:12;97663.47;;;16.83;100.00
70027;BME280;57506;50.092;15.804;2023-08-06T10:38:45;97660.75;;;16.78;100.00
70027;BME280;57506;50.092;15.804;2023-08-06T10:41:29;97652.03;;;16.91;100.00
70027;BME280;57506;50.092;15.804;2023-08-06T10:44:21;97662.91;;;16.91;100.00
70027;BME280;57506;50.092;15.804;2023-08-06T10:46:47;97667.81;;;16.84;100.00
70027;BME280;57506;50.092;15.804;2023-08-06T10:49:17;97673.28;;;16.84;100.00
70027;BME280;57506;50.092;15.804;2023-08-06T10:51:43;97658.56;;;16.90;100.00
70027;BME280;57506;50.092;15.804;2023-08-06T10:54:10;97674.63;;;16.82;100.00
70027;BME280;57506;50.092;15.804;2023-08-06T10:56:40;97655.84;;;17.00;100.00
70027;BME280;57506;50.092;15.804;2023-08-06T10:59:07;97650.41;;;17.00;100.00
70027;BME280;57506;50.092;15.804;2023-08-06T11:01:33;97652.88;;;17.02;100.00
70027;BME280;57506;50.092;15.804;2023-08-06T11:04:02;97673.81;;;17.01;100.00
70027;BME280;57506;50.092;15.804;2023-08-06T11:06:28;97670.53;;;17.14;100.00
70027;BME280;57506;50.092;15.804;2023-08-06T11:08:54;97674.09;;;17.15;100.00
70027;BME280;57506;50.092;15.804;2023-08-06T11:11:22;97687.97;;;17.03;100.00
70027;BME280;57506;50.092;15.804;2023-08-06T11:13:49;97696.66;;;17.05;100.00
70027;BME280;57506;50.092;15.804;2023-08-06T11:16:20;97690.94;;;16.97;100.00
70027;BME280;57506;50.092;15.804;2023-08-06T11:18:47;97695.84;;;16.95;100.00
70027;BME280;57506;50.092;15.804;2023-08-06T11:21:13;97685.22;;;16.78;100.00
70027;BME280;57506;50.092;15.804;2023-08-06T11:23:39;97687.41;;;16.91;100.00
70027;BME280;57506;50.092;15.804;2023-08-06T11:26:05;97688.50;;;16.90;100.00
70027;BME280;57506;50.092;15.804;2023-08-06T11:28:31;97675.16;;;17.09;100.00
70027;BME280;57506;50.092;15.804;2023-08-06T11:30:58;97685.25;;;17.13;100.00
70027;BME280;57506;50.092;15.804;2023-08-06T11:33:27;97678.44;;;17.16;100.00
70027;BME280;57506;50.092;15.804;2023-08-06T11:35:58;97690.41;;;17.00;100.00
70027;BME280;57506;50.092;15.804;2023-08-06T11:38:28;97672.72;;;16.97;100.00
70027;BME280;57506;50.092;15.804;2023-08-06T11:40:54;97702.09;;;16.95;100.00
70027;BME280;57506;50.092;15.804;2023-08-06T11:43:21;97707.03;;;17.03;100.00
70027;BME280;57506;50.092;15.804;2023-08-06T11:45:48;97701.03;;;17.06;100.00
70027;BME280;57506;50.092;15.804;2023-08-06T11:48:14;97709.19;;;17.17;100.00
70027;BME280;57506;50.092;15.804;2023-08-06T11:50:40;97693.41;;;17.24;100.00
70027;BME280;57506;50.092;15.804;2023-08-06T11:53:05;97700.22;;;17.36;100.00
70027;BME280;57506;50.092;15.804;2023-08-06T11:55:32;97708.94;;;17.33;100.00
70027;BME280;57506;50.092;15.804;2023-08-06T11:57:58;97699.34;;;17.56;100.00
70027;BME280;57506;50.092;15.804;2023-08-06T12:00:25;97701.00;;;17.42;100.00
70027;BME280;57506;50.092;15.804;2023-08-06T12:02:51;97716.25;;;17.43;100.00
70027;BME280;57506;50.092;15.804;2023-08-06T12:05:21;97722.78;;;17.42;100.00
70027;BME280;57506;50.092;15.804;2023-08-06T12:07:51;97724.44;;;17.43;100.00
70027;BME280;57506;50.092;15.804;2023-08-06T12:10:18;97720.91;;;17.47;100.00
70027;BME280;57506;50.092;15.804;2023-08-06T12:12:47;97735.06;;;17.29;100.00
70027;BME280;57506;50.092;15.804;2023-08-06T12:15:13;97749.19;;;17.21;100.00
70027;BME280;57506;50.092;15.804;2023-08-06T12:17:39;97734.50;;;17.22;100.00
70027;BME280;57506;50.092;15.804;2023-08-06T12:20:06;97736.69;;;17.25;100.00
70027;BME280;57506;50.092;15.804;2023-08-06T12:22:33;97742.94;;;17.10;100.00
70027;BME280;57506;50.092;15.804;2023-08-06T12:25:09;97720.06;;;17.27;100.00
70027;BME280;57506;50.092;15.804;2023-08-06T12:27:44;97726.09;;;17.34;100.00
70027;BME280;57506;50.092;15.804;2023-08-06T12:30:12;97750.84;;;17.37;100.00
70027;BME280;57506;50.092;15.804;2023-08-06T12:32:38;97746.78;;;17.35;100.00
70027;BME280;57506;50.092;15.804;2023-08-06T12:35:04;97754.13;;;17.29;100.00
70027;BME280;57506;50.092;15.804;2023-08-06T12:37:32;97746.50;;;17.16;100.00
70027;BME280;57506;50.092;15.804;2023-08-06T12:39:58;97745.13;;;17.13;100.00
70027;BME280;57506;50.092;15.804;2023-08-06T12:42:23;97744.06;;;17.20;100.00
70027;BME280;57506;50.092;15.804;2023-08-06T12:44:49;97739.13;;;17.22;100.00